sensor_id;sensor_type;location;lat;lon;timestamp;temperature;humidity
78694;SHT31;68029;51.978;5.646;2023-02-21T00:02:26;10.8;75.8
78694;SHT31;68029;51.978;5.646;2023-02-21T00:05:11;10.8;76.1
78694;SHT31;68029;51.978;5.646;2023-02-21T00:07:57;10.8;76.0
78694;SHT31;68029;51.978;5.646;2023-02-21T00:10:43;10.8;76.0
78694;SHT31;68029;51.978;5.646;2023-02-21T00:13:29;10.8;75.9
78694;SHT31;68029;51.978;5.646;2023-02-21T00:16:17;10.8;75.9
78694;SHT31;68029;51.978;5.646;2023-02-21T00:19:03;10.8;75.9
78694;SHT31;68029;51.978;5.646;2023-02-21T00:21:49;10.8;75.9
78694;SHT31;68029;51.978;5.646;2023-02-21T00:24:35;10.8;75.9
78694;SHT31;68029;51.978;5.646;2023-02-21T00:27:23;10.8;75.9
78694;SHT31;68029;51.978;5.646;2023-02-21T00:30:11;10.8;75.8
78694;SHT31;68029;51.978;5.646;2023-02-21T00:32:57;10.8;75.9
78694;SHT31;68029;51.978;5.646;2023-02-21T00:35:43;10.8;76.0
78694;SHT31;68029;51.978;5.646;2023-02-21T00:38:29;10.8;76.0
78694;SHT31;68029;51.978;5.646;2023-02-21T00:41:15;10.8;75.9
78694;SHT31;68029;51.978;5.646;2023-02-21T00:44:01;10.8;75.9
78694;SHT31;68029;51.978;5.646;2023-02-21T00:46:47;10.8;75.9
78694;SHT31;68029;51.978;5.646;2023-02-21T00:49:33;10.8;75.9
78694;SHT31;68029;51.978;5.646;2023-02-21T00:52:19;10.8;76.0
78694;SHT31;68029;51.978;5.646;2023-02-21T00:55:06;10.8;76.0
78694;SHT31;68029;51.978;5.646;2023-02-21T00:57:52;10.7;76.2
78694;SHT31;68029;51.978;5.646;2023-02-21T01:00:37;10.7;76.1
78694;SHT31;68029;51.978;5.646;2023-02-21T01:03:23;10.7;76.2
78694;SHT31;68029;51.978;5.646;2023-02-21T01:06:11;10.7;76.3
78694;SHT31;68029;51.978;5.646;2023-02-21T01:08:59;10.7;76.4
78694;SHT31;68029;51.978;5.646;2023-02-21T01:11:44;10.7;76.4
78694;SHT31;68029;51.978;5.646;2023-02-21T01:14:30;10.7;76.4
78694;SHT31;68029;51.978;5.646;2023-02-21T01:17:16;10.7;76.4
78694;SHT31;68029;51.978;5.646;2023-02-21T01:20:03;10.7;76.4
78694;SHT31;68029;51.978;5.646;2023-02-21T01:22:51;10.7;76.4
78694;SHT31;68029;51.978;5.646;2023-02-21T01:25:37;10.7;76.4
78694;SHT31;68029;51.978;5.646;2023-02-21T01:28:23;10.7;76.4
78694;SHT31;68029;51.978;5.646;2023-02-21T01:31:09;10.7;76.4
78694;SHT31;68029;51.978;5.646;2023-02-21T01:33:55;10.7;76.4
78694;SHT31;68029;51.978;5.646;2023-02-21T01:36:41;10.7;76.4
78694;SHT31;68029;51.978;5.646;2023-02-21T01:39:29;10.7;76.6
78694;SHT31;68029;51.978;5.646;2023-02-21T01:42:15;10.7;76.7
78694;SHT31;68029;51.978;5.646;2023-02-21T01:45:47;10.7;76.8
78694;SHT31;68029;51.978;5.646;2023-02-21T01:48:36;10.7;76.9
78694;SHT31;68029;51.978;5.646;2023-02-21T01:51:26;10.7;76.9
78694;SHT31;68029;51.978;5.646;2023-02-21T01:54:13;10.7;76.9
78694;SHT31;68029;51.978;5.646;2023-02-21T01:57:01;10.7;76.8
78694;SHT31;68029;51.978;5.646;2023-02-21T01:59:51;10.7;76.8
78694;SHT31;68029;51.978;5.646;2023-02-21T02:02:46;10.7;76.8
78694;SHT31;68029;51.978;5.646;2023-02-21T02:05:37;10.7;76.8
78694;SHT31;68029;51.978;5.646;2023-02-21T02:08:30;10.7;76.9
78694;SHT31;68029;51.978;5.646;2023-02-21T02:11:24;10.7;76.9
78694;SHT31;68029;51.978;5.646;2023-02-21T02:14:28;10.7;77.0
78694;SHT31;68029;51.978;5.646;2023-02-21T02:17:04;10.7;76.9
78694;SHT31;68029;51.978;5.646;2023-02-21T02:21:16;10.7;76.9
78694;SHT31;68029;51.978;5.646;2023-02-21T02:24:25;10.7;76.7
78694;SHT31;68029;51.978;5.646;2023-02-21T02:28:40;10.8;76.5
78694;SHT31;68029;51.978;5.646;2023-02-21T02:31:34;10.8;76.6
78694;SHT31;68029;51.978;5.646;2023-02-21T02:36:22;10.8;76.6
78694;SHT31;68029;51.978;5.646;2023-02-21T02:39:04;10.8;76.6
78694;SHT31;68029;51.978;5.646;2023-02-21T02:41:48;10.8;76.7
78694;SHT31;68029;51.978;5.646;2023-02-21T02:44:26;10.8;76.7
78694;SHT31;68029;51.978;5.646;2023-02-21T02:47:01;10.8;76.6
78694;SHT31;68029;51.978;5.646;2023-02-21T02:49:35;10.8;76.6
78694;SHT31;68029;51.978;5.646;2023-02-21T02:52:08;10.8;76.6
78694;SHT31;68029;51.978;5.646;2023-02-21T02:54:39;10.8;76.5
78694;SHT31;68029;51.978;5.646;2023-02-21T02:57:10;10.8;76.5
78694;SHT31;68029;51.978;5.646;2023-02-21T02:59:45;10.8;76.6
78694;SHT31;68029;51.978;5.646;2023-02-21T03:02:36;10.8;76.6
78694;SHT31;68029;51.978;5.646;2023-02-21T03:05:26;10.8;76.6
78694;SHT31;68029;51.978;5.646;2023-02-21T03:08:05;10.7;76.7
78694;SHT31;68029;51.978;5.646;2023-02-21T03:10:47;10.7;76.7
78694;SHT31;68029;51.978;5.646;2023-02-21T03:13:27;10.7;76.9
78694;SHT31;68029;51.978;5.646;2023-02-21T03:16:04;10.7;77.1
78694;SHT31;68029;51.978;5.646;2023-02-21T03:18:42;10.7;77.1
78694;SHT31;68029;51.978;5.646;2023-02-21T03:21:17;10.6;77.2
78694;SHT31;68029;51.978;5.646;2023-02-21T03:23:51;10.6;77.3
78694;SHT31;68029;51.978;5.646;2023-02-21T03:26:22;10.6;77.4
78694;SHT31;68029;51.978;5.646;2023-02-21T03:28:53;10.6;77.6
78694;SHT31;68029;51.978;5.646;2023-02-21T03:31:32;10.6;77.6
78694;SHT31;68029;51.978;5.646;2023-02-21T03:34:04;10.6;77.6
78694;SHT31;68029;51.978;5.646;2023-02-21T03:36:36;10.6;77.7
78694;SHT31;68029;51.978;5.646;2023-02-21T03:39:06;10.5;77.8
78694;SHT31;68029;51.978;5.646;2023-02-21T03:41:36;10.5;78.0
78694;SHT31;68029;51.978;5.646;2023-02-21T03:44:06;10.5;78.0
78694;SHT31;68029;51.978;5.646;2023-02-21T03:46:37;10.5;78.1
78694;SHT31;68029;51.978;5.646;2023-02-21T03:49:07;10.5;78.2
78694;SHT31;68029;51.978;5.646;2023-02-21T03:51:36;10.5;78.4
78694;SHT31;68029;51.978;5.646;2023-02-21T03:54:06;10.5;78.4
78694;SHT31;68029;51.978;5.646;2023-02-21T03:56:35;10.5;78.4
78694;SHT31;68029;51.978;5.646;2023-02-21T03:59:05;10.5;78.4
78694;SHT31;68029;51.978;5.646;2023-02-21T04:01:34;10.5;78.3
78694;SHT31;68029;51.978;5.646;2023-02-21T04:04:04;10.5;78.3
78694;SHT31;68029;51.978;5.646;2023-02-21T04:06:33;10.5;78.3
78694;SHT31;68029;51.978;5.646;2023-02-21T04:09:03;10.5;78.3
78694;SHT31;68029;51.978;5.646;2023-02-21T04:11:34;10.5;78.2
78694;SHT31;68029;51.978;5.646;2023-02-21T04:14:04;10.5;78.2
78694;SHT31;68029;51.978;5.646;2023-02-21T04:16:33;10.5;78.1
78694;SHT31;68029;51.978;5.646;2023-02-21T04:19:03;10.5;78.2
78694;SHT31;68029;51.978;5.646;2023-02-21T04:21:33;10.6;78.1
78694;SHT31;68029;51.978;5.646;2023-02-21T04:24:03;10.6;78.0
78694;SHT31;68029;51.978;5.646;2023-02-21T04:26:33;10.6;77.9
78694;SHT31;68029;51.978;5.646;2023-02-21T04:29:03;10.6;77.9
78694;SHT31;68029;51.978;5.646;2023-02-21T04:31:33;10.6;77.9
78694;SHT31;68029;51.978;5.646;2023-02-21T04:34:02;10.6;77.9
78694;SHT31;68029;51.978;5.646;2023-02-21T04:36:32;10.6;77.9
78694;SHT31;68029;51.978;5.646;2023-02-21T04:39:04;10.6;77.8
78694;SHT31;68029;51.978;5.646;2023-02-21T04:41:34;10.6;77.9
78694;SHT31;68029;51.978;5.646;2023-02-21T04:44:03;10.6;77.9
78694;SHT31;68029;51.978;5.646;2023-02-21T04:46:34;10.6;77.8
78694;SHT31;68029;51.978;5.646;2023-02-21T04:49:03;10.6;77.8
78694;SHT31;68029;51.978;5.646;2023-02-21T04:51:33;10.6;77.8
78694;SHT31;68029;51.978;5.646;2023-02-21T04:54:03;10.6;77.7
78694;SHT31;68029;51.978;5.646;2023-02-21T04:56:34;10.5;77.8
78694;SHT31;68029;51.978;5.646;2023-02-21T04:59:04;10.5;77.9
78694;SHT31;68029;51.978;5.646;2023-02-21T05:01:35;10.5;78.0
78694;SHT31;68029;51.978;5.646;2023-02-21T05:04:05;10.5;78.2
78694;SHT31;68029;51.978;5.646;2023-02-21T05:06:35;10.5;78.2
78694;SHT31;68029;51.978;5.646;2023-02-21T05:09:07;10.5;78.2
78694;SHT31;68029;51.978;5.646;2023-02-21T05:11:37;10.5;78.2
78694;SHT31;68029;51.978;5.646;2023-02-21T05:14:07;10.5;78.2
78694;SHT31;68029;51.978;5.646;2023-02-21T05:16:37;10.5;78.2
78694;SHT31;68029;51.978;5.646;2023-02-21T05:19:06;10.5;78.2
78694;SHT31;68029;51.978;5.646;2023-02-21T05:21:36;10.5;78.2
78694;SHT31;68029;51.978;5.646;2023-02-21T05:24:07;10.5;78.2
78694;SHT31;68029;51.978;5.646;2023-02-21T05:26:37;10.5;78.2
78694;SHT31;68029;51.978;5.646;2023-02-21T05:29:07;10.5;78.4
78694;SHT31;68029;51.978;5.646;2023-02-21T05:31:36;10.5;78.3
78694;SHT31;68029;51.978;5.646;2023-02-21T05:34:06;10.5;78.4
78694;SHT31;68029;51.978;5.646;2023-02-21T05:36:36;10.5;78.4
78694;SHT31;68029;51.978;5.646;2023-02-21T05:39:07;10.5;78.4
78694;SHT31;68029;51.978;5.646;2023-02-21T05:41:40;10.5;78.4
78694;SHT31;68029;51.978;5.646;2023-02-21T05:44:14;10.5;78.5
78694;SHT31;68029;51.978;5.646;2023-02-21T05:46:46;10.5;78.6
78694;SHT31;68029;51.978;5.646;2023-02-21T05:49:15;10.6;78.4
78694;SHT31;68029;51.978;5.646;2023-02-21T05:51:45;10.6;78.2
78694;SHT31;68029;51.978;5.646;2023-02-21T05:54:18;10.6;78.2
78694;SHT31;68029;51.978;5.646;2023-02-21T05:56:50;10.6;78.1
78694;SHT31;68029;51.978;5.646;2023-02-21T05:59:20;10.6;78.1
78694;SHT31;68029;51.978;5.646;2023-02-21T06:01:57;10.7;78.0
78694;SHT31;68029;51.978;5.646;2023-02-21T06:04:29;10.7;78.0
78694;SHT31;68029;51.978;5.646;2023-02-21T06:06:58;10.7;78.0
78694;SHT31;68029;51.978;5.646;2023-02-21T06:09:28;10.7;77.9
78694;SHT31;68029;51.978;5.646;2023-02-21T06:12:00;10.7;78.0
78694;SHT31;68029;51.978;5.646;2023-02-21T06:14:29;10.7;78.0
78694;SHT31;68029;51.978;5.646;2023-02-21T06:17:01;10.7;78.0
78694;SHT31;68029;51.978;5.646;2023-02-21T06:19:31;10.7;77.9
78694;SHT31;68029;51.978;5.646;2023-02-21T06:22:01;10.7;77.8
78694;SHT31;68029;51.978;5.646;2023-02-21T06:24:30;10.7;77.8
78694;SHT31;68029;51.978;5.646;2023-02-21T06:27:00;10.7;77.8
78694;SHT31;68029;51.978;5.646;2023-02-21T06:29:29;10.7;77.9
78694;SHT31;68029;51.978;5.646;2023-02-21T06:32:00;10.7;78.0
78694;SHT31;68029;51.978;5.646;2023-02-21T06:34:29;10.7;78.0
78694;SHT31;68029;51.978;5.646;2023-02-21T06:36:59;10.7;78.0
78694;SHT31;68029;51.978;5.646;2023-02-21T06:39:30;10.6;78.1
78694;SHT31;68029;51.978;5.646;2023-02-21T06:42:00;10.6;78.1
78694;SHT31;68029;51.978;5.646;2023-02-21T06:44:29;10.6;78.3
78694;SHT31;68029;51.978;5.646;2023-02-21T06:46:59;10.6;78.4
78694;SHT31;68029;51.978;5.646;2023-02-21T06:49:30;10.6;78.5
78694;SHT31;68029;51.978;5.646;2023-02-21T06:52:00;10.6;78.5
78694;SHT31;68029;51.978;5.646;2023-02-21T06:54:29;10.6;78.6
78694;SHT31;68029;51.978;5.646;2023-02-21T06:56:59;10.6;78.5
78694;SHT31;68029;51.978;5.646;2023-02-21T06:59:29;10.6;78.6
78694;SHT31;68029;51.978;5.646;2023-02-21T07:01:59;10.6;78.5
78694;SHT31;68029;51.978;5.646;2023-02-21T07:04:29;10.6;78.5
78694;SHT31;68029;51.978;5.646;2023-02-21T07:06:58;10.6;78.5
78694;SHT31;68029;51.978;5.646;2023-02-21T07:09:28;10.6;78.4
78694;SHT31;68029;51.978;5.646;2023-02-21T07:11:57;10.6;78.5
78694;SHT31;68029;51.978;5.646;2023-02-21T07:14:27;10.6;78.5
78694;SHT31;68029;51.978;5.646;2023-02-21T07:16:57;10.6;78.5
78694;SHT31;68029;51.978;5.646;2023-02-21T07:19:26;10.6;78.6
78694;SHT31;68029;51.978;5.646;2023-02-21T07:21:56;10.6;78.6
78694;SHT31;68029;51.978;5.646;2023-02-21T07:24:25;10.6;78.7
78694;SHT31;68029;51.978;5.646;2023-02-21T07:26:55;10.6;78.8
78694;SHT31;68029;51.978;5.646;2023-02-21T07:29:26;10.6;78.8
78694;SHT31;68029;51.978;5.646;2023-02-21T07:31:56;10.6;78.9
78694;SHT31;68029;51.978;5.646;2023-02-21T07:34:26;10.6;79.0
78694;SHT31;68029;51.978;5.646;2023-02-21T07:36:55;10.5;79.1
78694;SHT31;68029;51.978;5.646;2023-02-21T07:39:25;10.5;79.0
78694;SHT31;68029;51.978;5.646;2023-02-21T07:41:54;10.5;79.1
78694;SHT31;68029;51.978;5.646;2023-02-21T07:44:24;10.5;79.3
78694;SHT31;68029;51.978;5.646;2023-02-21T07:46:54;10.5;79.4
78694;SHT31;68029;51.978;5.646;2023-02-21T07:49:23;10.5;79.5
78694;SHT31;68029;51.978;5.646;2023-02-21T07:51:53;10.4;79.6
78694;SHT31;68029;51.978;5.646;2023-02-21T07:54:22;10.4;79.6
78694;SHT31;68029;51.978;5.646;2023-02-21T07:56:52;10.4;79.6
78694;SHT31;68029;51.978;5.646;2023-02-21T07:59:21;10.4;79.6
78694;SHT31;68029;51.978;5.646;2023-02-21T08:01:51;10.4;79.7
78694;SHT31;68029;51.978;5.646;2023-02-21T08:04:21;10.4;79.7
78694;SHT31;68029;51.978;5.646;2023-02-21T08:06:59;10.5;79.5
78694;SHT31;68029;51.978;5.646;2023-02-21T08:09:31;10.5;79.6
78694;SHT31;68029;51.978;5.646;2023-02-21T08:12:02;10.5;79.6
78694;SHT31;68029;51.978;5.646;2023-02-21T08:14:32;10.5;79.5
78694;SHT31;68029;51.978;5.646;2023-02-21T08:17:01;10.5;79.2
78694;SHT31;68029;51.978;5.646;2023-02-21T08:19:31;10.5;79.3
78694;SHT31;68029;51.978;5.646;2023-02-21T08:22:01;10.5;79.4
78694;SHT31;68029;51.978;5.646;2023-02-21T08:24:32;10.5;79.4
78694;SHT31;68029;51.978;5.646;2023-02-21T08:27:02;10.5;79.4
78694;SHT31;68029;51.978;5.646;2023-02-21T08:29:31;10.5;79.3
78694;SHT31;68029;51.978;5.646;2023-02-21T08:32:01;10.6;79.3
78694;SHT31;68029;51.978;5.646;2023-02-21T08:34:31;10.6;79.1
78694;SHT31;68029;51.978;5.646;2023-02-21T08:37:00;10.6;79.2
78694;SHT31;68029;51.978;5.646;2023-02-21T08:39:37;10.6;79.1
78694;SHT31;68029;51.978;5.646;2023-02-21T08:42:06;10.6;79.0
78694;SHT31;68029;51.978;5.646;2023-02-21T08:44:36;10.6;78.8
78694;SHT31;68029;51.978;5.646;2023-02-21T08:47:05;10.7;78.8
78694;SHT31;68029;51.978;5.646;2023-02-21T08:49:35;10.7;78.9
78694;SHT31;68029;51.978;5.646;2023-02-21T08:52:07;10.7;79.1
78694;SHT31;68029;51.978;5.646;2023-02-21T08:54:37;10.7;79.1
78694;SHT31;68029;51.978;5.646;2023-02-21T08:57:07;10.7;78.8
78694;SHT31;68029;51.978;5.646;2023-02-21T08:59:38;10.7;78.9
78694;SHT31;68029;51.978;5.646;2023-02-21T09:02:13;10.7;79.2
78694;SHT31;68029;51.978;5.646;2023-02-21T09:04:44;10.7;78.9
78694;SHT31;68029;51.978;5.646;2023-02-21T09:07:15;10.7;78.9
78694;SHT31;68029;51.978;5.646;2023-02-21T09:09:46;10.7;79.2
78694;SHT31;68029;51.978;5.646;2023-02-21T09:12:16;10.7;79.2
78694;SHT31;68029;51.978;5.646;2023-02-21T09:14:45;10.7;79.1
78694;SHT31;68029;51.978;5.646;2023-02-21T09:17:16;10.7;78.9
78694;SHT31;68029;51.978;5.646;2023-02-21T09:19:46;10.7;78.8
78694;SHT31;68029;51.978;5.646;2023-02-21T09:22:16;10.7;78.9
78694;SHT31;68029;51.978;5.646;2023-02-21T09:24:48;10.7;79.2
78694;SHT31;68029;51.978;5.646;2023-02-21T09:27:17;10.7;78.8
78694;SHT31;68029;51.978;5.646;2023-02-21T09:29:47;10.7;78.6
78694;SHT31;68029;51.978;5.646;2023-02-21T09:32:16;10.7;78.7
78694;SHT31;68029;51.978;5.646;2023-02-21T09:34:48;10.7;78.8
78694;SHT31;68029;51.978;5.646;2023-02-21T09:37:18;10.7;78.9
78694;SHT31;68029;51.978;5.646;2023-02-21T09:39:47;10.8;78.9
78694;SHT31;68029;51.978;5.646;2023-02-21T09:42:18;10.8;79.2
78694;SHT31;68029;51.978;5.646;2023-02-21T09:44:50;10.8;79.4
78694;SHT31;68029;51.978;5.646;2023-02-21T09:47:26;10.8;79.1
78694;SHT31;68029;51.978;5.646;2023-02-21T09:50:04;10.8;78.8
78694;SHT31;68029;51.978;5.646;2023-02-21T09:52:36;10.8;79.1
78694;SHT31;68029;51.978;5.646;2023-02-21T09:55:07;10.8;79.3
78694;SHT31;68029;51.978;5.646;2023-02-21T09:57:41;10.8;79.0
78694;SHT31;68029;51.978;5.646;2023-02-21T10:00:18;10.8;79.2
78694;SHT31;68029;51.978;5.646;2023-02-21T10:02:55;10.9;78.8
78694;SHT31;68029;51.978;5.646;2023-02-21T10:05:41;10.9;78.6
78694;SHT31;68029;51.978;5.646;2023-02-21T10:08:17;10.9;78.8
78694;SHT31;68029;51.978;5.646;2023-02-21T10:10:52;10.9;78.9
78694;SHT31;68029;51.978;5.646;2023-02-21T10:13:32;10.9;79.0
78694;SHT31;68029;51.978;5.646;2023-02-21T10:16:09;10.9;78.7
78694;SHT31;68029;51.978;5.646;2023-02-21T10:18:44;10.9;78.6
78694;SHT31;68029;51.978;5.646;2023-02-21T10:21:26;10.9;78.5
78694;SHT31;68029;51.978;5.646;2023-02-21T10:23:58;10.9;78.6
78694;SHT31;68029;51.978;5.646;2023-02-21T10:26:36;11.0;78.9
78694;SHT31;68029;51.978;5.646;2023-02-21T10:29:19;11.0;78.6
78694;SHT31;68029;51.978;5.646;2023-02-21T10:31:55;11.0;78.3
78694;SHT31;68029;51.978;5.646;2023-02-21T10:34:28;11.0;78.2
78694;SHT31;68029;51.978;5.646;2023-02-21T10:37:03;11.0;77.8
78694;SHT31;68029;51.978;5.646;2023-02-21T10:39:40;11.0;77.7
78694;SHT31;68029;51.978;5.646;2023-02-21T10:42:19;11.0;78.2
78694;SHT31;68029;51.978;5.646;2023-02-21T10:44:52;11.0;78.3
78694;SHT31;68029;51.978;5.646;2023-02-21T10:47:30;11.0;78.3
78694;SHT31;68029;51.978;5.646;2023-02-21T10:50:04;11.0;78.2
78694;SHT31;68029;51.978;5.646;2023-02-21T10:52:48;11.0;78.3
78694;SHT31;68029;51.978;5.646;2023-02-21T10:55:20;11.0;77.6
78694;SHT31;68029;51.978;5.646;2023-02-21T10:57:57;11.0;78.0
78694;SHT31;68029;51.978;5.646;2023-02-21T11:00:33;11.0;78.4
78694;SHT31;68029;51.978;5.646;2023-02-21T11:03:06;11.1;78.3
78694;SHT31;68029;51.978;5.646;2023-02-21T11:05:42;11.1;78.2
78694;SHT31;68029;51.978;5.646;2023-02-21T11:08:34;11.1;77.9
78694;SHT31;68029;51.978;5.646;2023-02-21T11:11:05;11.1;77.6
78694;SHT31;68029;51.978;5.646;2023-02-21T11:13:36;11.1;77.2
78694;SHT31;68029;51.978;5.646;2023-02-21T11:16:16;11.2;77.2
78694;SHT31;68029;51.978;5.646;2023-02-21T11:18:58;11.2;77.2
78694;SHT31;68029;51.978;5.646;2023-02-21T11:21:34;11.1;77.1
78694;SHT31;68029;51.978;5.646;2023-02-21T11:24:06;11.1;77.3
78694;SHT31;68029;51.978;5.646;2023-02-21T11:26:45;11.1;77.1
78694;SHT31;68029;51.978;5.646;2023-02-21T11:29:20;11.1;77.5
78694;SHT31;68029;51.978;5.646;2023-02-21T11:31:53;11.2;77.7
78694;SHT31;68029;51.978;5.646;2023-02-21T11:34:28;11.2;77.7
78694;SHT31;68029;51.978;5.646;2023-02-21T11:37:03;11.2;77.3
78694;SHT31;68029;51.978;5.646;2023-02-21T11:39:34;11.2;77.4
78694;SHT31;68029;51.978;5.646;2023-02-21T11:42:24;11.2;77.1
78694;SHT31;68029;51.978;5.646;2023-02-21T11:45:14;11.2;77.0
78694;SHT31;68029;51.978;5.646;2023-02-21T11:47:58;11.2;77.3
78694;SHT31;68029;51.978;5.646;2023-02-21T11:50:37;11.2;77.3
78694;SHT31;68029;51.978;5.646;2023-02-21T11:53:22;11.1;77.6
78694;SHT31;68029;51.978;5.646;2023-02-21T11:55:59;11.1;77.8
78694;SHT31;68029;51.978;5.646;2023-02-21T11:58:40;11.2;78.0
78694;SHT31;68029;51.978;5.646;2023-02-21T12:01:16;11.2;77.8
78694;SHT31;68029;51.978;5.646;2023-02-21T12:04:03;11.2;77.6
78694;SHT31;68029;51.978;5.646;2023-02-21T12:06:48;11.2;77.2
78694;SHT31;68029;51.978;5.646;2023-02-21T12:09:25;11.2;77.4
78694;SHT31;68029;51.978;5.646;2023-02-21T12:12:04;11.3;77.4
78694;SHT31;68029;51.978;5.646;2023-02-21T12:14:54;11.3;77.5
78694;SHT31;68029;51.978;5.646;2023-02-21T12:17:44;11.3;77.4
78694;SHT31;68029;51.978;5.646;2023-02-21T12:20:29;11.4;76.6
78694;SHT31;68029;51.978;5.646;2023-02-21T12:23:07;11.4;76.4
78694;SHT31;68029;51.978;5.646;2023-02-21T12:25:49;11.4;76.5
78694;SHT31;68029;51.978;5.646;2023-02-21T12:28:39;11.4;76.8
78694;SHT31;68029;51.978;5.646;2023-02-21T12:31:16;11.4;76.8
78694;SHT31;68029;51.978;5.646;2023-02-21T12:34:00;11.4;77.2
78694;SHT31;68029;51.978;5.646;2023-02-21T12:38:40;11.4;76.9
78694;SHT31;68029;51.978;5.646;2023-02-21T12:41:26;11.4;76.7
78694;SHT31;68029;51.978;5.646;2023-02-21T12:44:02;11.4;76.6
78694;SHT31;68029;51.978;5.646;2023-02-21T12:46:39;11.4;76.8
78694;SHT31;68029;51.978;5.646;2023-02-21T12:49:16;11.4;76.8
78694;SHT31;68029;51.978;5.646;2023-02-21T12:51:52;11.4;77.1
78694;SHT31;68029;51.978;5.646;2023-02-21T12:54:41;11.4;77.2
78694;SHT31;68029;51.978;5.646;2023-02-21T12:57:12;11.4;77.0
78694;SHT31;68029;51.978;5.646;2023-02-21T12:59:52;11.4;76.8
78694;SHT31;68029;51.978;5.646;2023-02-21T13:02:33;11.4;76.6
78694;SHT31;68029;51.978;5.646;2023-02-21T13:05:10;11.4;76.7
78694;SHT31;68029;51.978;5.646;2023-02-21T13:07:47;11.4;77.0
78694;SHT31;68029;51.978;5.646;2023-02-21T13:10:23;11.4;77.0
78694;SHT31;68029;51.978;5.646;2023-02-21T13:13:00;11.4;76.9
78694;SHT31;68029;51.978;5.646;2023-02-21T13:15:30;11.4;77.1
78694;SHT31;68029;51.978;5.646;2023-02-21T13:18:06;11.4;76.9
78694;SHT31;68029;51.978;5.646;2023-02-21T13:20:40;11.4;76.9
78694;SHT31;68029;51.978;5.646;2023-02-21T13:23:12;11.4;76.8
78694;SHT31;68029;51.978;5.646;2023-02-21T13:26:34;11.3;77.1
78694;SHT31;68029;51.978;5.646;2023-02-21T13:29:15;11.3;77.3
78694;SHT31;68029;51.978;5.646;2023-02-21T13:31:49;11.3;77.0
78694;SHT31;68029;51.978;5.646;2023-02-21T13:34:26;11.3;76.9
78694;SHT31;68029;51.978;5.646;2023-02-21T13:37:05;11.3;77.4
78694;SHT31;68029;51.978;5.646;2023-02-21T13:39:36;11.2;77.8
78694;SHT31;68029;51.978;5.646;2023-02-21T13:42:09;11.2;78.0
78694;SHT31;68029;51.978;5.646;2023-02-21T13:44:43;11.2;77.9
78694;SHT31;68029;51.978;5.646;2023-02-21T13:47:16;11.2;78.0
78694;SHT31;68029;51.978;5.646;2023-02-21T13:49:48;11.2;77.9
78694;SHT31;68029;51.978;5.646;2023-02-21T13:54:33;11.2;77.9
78694;SHT31;68029;51.978;5.646;2023-02-21T13:57:27;11.2;77.6
78694;SHT31;68029;51.978;5.646;2023-02-21T13:59:58;11.3;77.5
78694;SHT31;68029;51.978;5.646;2023-02-21T14:02:29;11.3;77.4
78694;SHT31;68029;51.978;5.646;2023-02-21T14:05:06;11.3;77.5
78694;SHT31;68029;51.978;5.646;2023-02-21T14:07:45;11.3;77.0
78694;SHT31;68029;51.978;5.646;2023-02-21T14:10:24;11.3;76.9
78694;SHT31;68029;51.978;5.646;2023-02-21T14:12:58;11.3;76.7
78694;SHT31;68029;51.978;5.646;2023-02-21T14:15:40;11.3;76.4
78694;SHT31;68029;51.978;5.646;2023-02-21T14:18:24;11.3;76.6
78694;SHT31;68029;51.978;5.646;2023-02-21T14:20:55;11.2;76.6
78694;SHT31;68029;51.978;5.646;2023-02-21T14:23:36;11.2;77.0
78694;SHT31;68029;51.978;5.646;2023-02-21T14:26:35;11.1;77.3
78694;SHT31;68029;51.978;5.646;2023-02-21T14:29:30;11.1;77.6
78694;SHT31;68029;51.978;5.646;2023-02-21T14:32:26;11.1;77.7
78694;SHT31;68029;51.978;5.646;2023-02-21T14:34:58;11.1;77.8
78694;SHT31;68029;51.978;5.646;2023-02-21T14:37:32;11.1;77.9
78694;SHT31;68029;51.978;5.646;2023-02-21T14:40:15;11.1;77.9
78694;SHT31;68029;51.978;5.646;2023-02-21T14:42:57;11.1;77.7
78694;SHT31;68029;51.978;5.646;2023-02-21T14:45:38;11.1;77.5
78694;SHT31;68029;51.978;5.646;2023-02-21T14:48:29;11.1;77.4
78694;SHT31;68029;51.978;5.646;2023-02-21T14:56:53;11.1;77.5
78694;SHT31;68029;51.978;5.646;2023-02-21T14:59:51;11.1;77.1
78694;SHT31;68029;51.978;5.646;2023-02-21T15:02:28;11.1;77.4
78694;SHT31;68029;51.978;5.646;2023-02-21T15:05:09;11.2;77.0
78694;SHT31;68029;51.978;5.646;2023-02-21T15:07:51;11.2;77.2
78694;SHT31;68029;51.978;5.646;2023-02-21T15:10:25;11.2;77.0
78694;SHT31;68029;51.978;5.646;2023-02-21T15:12:57;11.2;76.6
78694;SHT31;68029;51.978;5.646;2023-02-21T15:15:30;11.3;76.4
78694;SHT31;68029;51.978;5.646;2023-02-21T15:18:10;11.3;76.4
78694;SHT31;68029;51.978;5.646;2023-02-21T15:20:42;11.3;75.9
78694;SHT31;68029;51.978;5.646;2023-02-21T15:23:15;11.3;76.0
78694;SHT31;68029;51.978;5.646;2023-02-21T15:25:54;11.3;76.1
78694;SHT31;68029;51.978;5.646;2023-02-21T15:28:26;11.3;76.3
78694;SHT31;68029;51.978;5.646;2023-02-21T15:31:00;11.3;76.0
78694;SHT31;68029;51.978;5.646;2023-02-21T15:33:33;11.3;75.9
78694;SHT31;68029;51.978;5.646;2023-02-21T15:36:06;11.3;76.3
78694;SHT31;68029;51.978;5.646;2023-02-21T15:38:42;11.3;76.2
78694;SHT31;68029;51.978;5.646;2023-02-21T15:41:25;11.3;75.8
78694;SHT31;68029;51.978;5.646;2023-02-21T15:44:02;11.4;76.0
78694;SHT31;68029;51.978;5.646;2023-02-21T15:46:42;11.4;75.5
78694;SHT31;68029;51.978;5.646;2023-02-21T15:49:18;11.4;75.7
78694;SHT31;68029;51.978;5.646;2023-02-21T15:51:50;11.4;75.2
78694;SHT31;68029;51.978;5.646;2023-02-21T15:54:28;11.4;75.0
78694;SHT31;68029;51.978;5.646;2023-02-21T15:57:21;11.4;75.1
78694;SHT31;68029;51.978;5.646;2023-02-21T16:00:24;11.4;75.1
78694;SHT31;68029;51.978;5.646;2023-02-21T16:03:29;11.5;75.2
78694;SHT31;68029;51.978;5.646;2023-02-21T16:06:12;11.5;75.2
78694;SHT31;68029;51.978;5.646;2023-02-21T16:08:54;11.5;74.7
78694;SHT31;68029;51.978;5.646;2023-02-21T16:11:40;11.6;74.6
78694;SHT31;68029;51.978;5.646;2023-02-21T16:14:21;11.6;74.6
78694;SHT31;68029;51.978;5.646;2023-02-21T16:16:57;11.6;74.5
78694;SHT31;68029;51.978;5.646;2023-02-21T16:19:32;11.6;74.2
78694;SHT31;68029;51.978;5.646;2023-02-21T16:22:24;11.6;74.4
78694;SHT31;68029;51.978;5.646;2023-02-21T16:25:12;11.7;74.1
78694;SHT31;68029;51.978;5.646;2023-02-21T16:27:44;11.6;74.0
78694;SHT31;68029;51.978;5.646;2023-02-21T16:30:18;11.6;75.2
78694;SHT31;68029;51.978;5.646;2023-02-21T16:32:49;11.6;74.5
78694;SHT31;68029;51.978;5.646;2023-02-21T16:35:22;11.7;74.1
78694;SHT31;68029;51.978;5.646;2023-02-21T16:37:55;11.7;73.2
78694;SHT31;68029;51.978;5.646;2023-02-21T16:40:26;11.7;73.4
78694;SHT31;68029;51.978;5.646;2023-02-21T16:42:57;11.7;73.4
78694;SHT31;68029;51.978;5.646;2023-02-21T16:45:29;11.7;73.6
78694;SHT31;68029;51.978;5.646;2023-02-21T16:48:02;11.7;73.2
78694;SHT31;68029;51.978;5.646;2023-02-21T16:50:34;11.7;73.2
78694;SHT31;68029;51.978;5.646;2023-02-21T16:53:05;11.7;72.4
78694;SHT31;68029;51.978;5.646;2023-02-21T16:55:40;11.7;71.9
78694;SHT31;68029;51.978;5.646;2023-02-21T16:58:19;11.7;72.1
78694;SHT31;68029;51.978;5.646;2023-02-21T17:00:54;11.7;72.0
78694;SHT31;68029;51.978;5.646;2023-02-21T17:03:24;11.7;71.4
78694;SHT31;68029;51.978;5.646;2023-02-21T17:05:57;11.7;71.9
78694;SHT31;68029;51.978;5.646;2023-02-21T17:08:28;11.6;72.3
78694;SHT31;68029;51.978;5.646;2023-02-21T17:10:57;11.6;72.8
78694;SHT31;68029;51.978;5.646;2023-02-21T17:13:27;11.6;72.2
78694;SHT31;68029;51.978;5.646;2023-02-21T17:15:56;11.6;72.8
78694;SHT31;68029;51.978;5.646;2023-02-21T17:18:26;11.5;72.7